sensor_id;sensor_type;location;lat;lon;timestamp;P1;durP1;ratioP1;P2;durP2;ratioP2
62050;SDS011;48008;51.204;6.766;2023-03-08T00:01:24;14.85;;;6.35;;
62050;SDS011;48008;51.204;6.766;2023-03-08T00:03:51;21.42;;;6.35;;
62050;SDS011;48008;51.204;6.766;2023-03-08T00:06:19;18.90;;;6.00;;
62050;SDS011;48008;51.204;6.766;2023-03-08T00:08:47;16.23;;;6.10;;
62050;SDS011;48008;51.204;6.766;2023-03-08T00:11:14;15.88;;;6.05;;
62050;SDS011;48008;51.204;6.766;2023-03-08T00:13:42;17.30;;;6.25;;
62050;SDS011;48008;51.204;6.766;2023-03-08T00:16:09;15.38;;;6.18;;
62050;SDS011;48008;51.204;6.766;2023-03-08T00:18:38;14.70;;;5.88;;
62050;SDS011;48008;51.204;6.766;2023-03-08T00:21:06;21.40;;;6.60;;
62050;SDS011;48008;51.204;6.766;2023-03-08T00:23:35;17.98;;;6.35;;
62050;SDS011;48008;51.204;6.766;2023-03-08T00:26:02;19.33;;;6.82;;
62050;SDS011;48008;51.204;6.766;2023-03-08T00:28:29;21.25;;;6.70;;
62050;SDS011;48008;51.204;6.766;2023-03-08T00:30:57;18.48;;;6.60;;
62050;SDS011;48008;51.204;6.766;2023-03-08T00:33:26;21.23;;;7.55;;
62050;SDS011;48008;51.204;6.766;2023-03-08T00:35:54;17.30;;;6.60;;
62050;SDS011;48008;51.204;6.766;2023-03-08T00:38:22;19.58;;;7.05;;
62050;SDS011;48008;51.204;6.766;2023-03-08T00:40:49;14.50;;;6.40;;
62050;SDS011;48008;51.204;6.766;2023-03-08T00:43:16;22.55;;;6.97;;
62050;SDS011;48008;51.204;6.766;2023-03-08T00:45:43;18.20;;;6.88;;
62050;SDS011;48008;51.204;6.766;2023-03-08T00:48:10;18.95;;;6.78;;
62050;SDS011;48008;51.204;6.766;2023-03-08T00:50:37;16.52;;;7.13;;
62050;SDS011;48008;51.204;6.766;2023-03-08T00:53:03;24.30;;;6.75;;
62050;SDS011;48008;51.204;6.766;2023-03-08T00:55:30;19.40;;;6.50;;
62050;SDS011;48008;51.204;6.766;2023-03-08T00:57:57;15.38;;;6.70;;
62050;SDS011;48008;51.204;6.766;2023-03-08T01:00:24;19.02;;;6.95;;
62050;SDS011;48008;51.204;6.766;2023-03-08T01:02:52;14.70;;;6.43;;
62050;SDS011;48008;51.204;6.766;2023-03-08T01:05:20;14.70;;;7.10;;
62050;SDS011;48008;51.204;6.766;2023-03-08T01:07:47;17.58;;;6.65;;
62050;SDS011;48008;51.204;6.766;2023-03-08T01:10:14;17.17;;;6.38;;
62050;SDS011;48008;51.204;6.766;2023-03-08T01:12:41;17.65;;;6.22;;
62050;SDS011;48008;51.204;6.766;2023-03-08T01:15:08;17.67;;;6.30;;
62050;SDS011;48008;51.204;6.766;2023-03-08T01:17:35;13.60;;;6.10;;
62050;SDS011;48008;51.204;6.766;2023-03-08T01:20:02;18.80;;;6.70;;
62050;SDS011;48008;51.204;6.766;2023-03-08T01:22:30;17.40;;;6.40;;
62050;SDS011;48008;51.204;6.766;2023-03-08T01:24:57;16.10;;;6.43;;
62050;SDS011;48008;51.204;6.766;2023-03-08T01:27:26;15.77;;;6.40;;
62050;SDS011;48008;51.204;6.766;2023-03-08T01:29:52;14.82;;;6.85;;
62050;SDS011;48008;51.204;6.766;2023-03-08T01:32:19;15.18;;;5.93;;
62050;SDS011;48008;51.204;6.766;2023-03-08T01:34:46;16.63;;;6.40;;
62050;SDS011;48008;51.204;6.766;2023-03-08T01:37:12;16.90;;;6.88;;
62050;SDS011;48008;51.204;6.766;2023-03-08T01:39:40;15.05;;;6.75;;
62050;SDS011;48008;51.204;6.766;2023-03-08T01:42:08;16.42;;;6.50;;
62050;SDS011;48008;51.204;6.766;2023-03-08T01:44:52;15.68;;;6.78;;
62050;SDS011;48008;51.204;6.766;2023-03-08T01:47:26;14.13;;;6.25;;
62050;SDS011;48008;51.204;6.766;2023-03-08T01:52:42;19.13;;;7.20;;
62050;SDS011;48008;51.204;6.766;2023-03-08T01:55:13;18.63;;;7.95;;
62050;SDS011;48008;51.204;6.766;2023-03-08T01:57:43;19.88;;;7.78;;
62050;SDS011;48008;51.204;6.766;2023-03-08T02:00:14;19.00;;;7.93;;
62050;SDS011;48008;51.204;6.766;2023-03-08T02:02:49;18.63;;;7.57;;
62050;SDS011;48008;51.204;6.766;2023-03-08T02:05:20;19.48;;;8.40;;
62050;SDS011;48008;51.204;6.766;2023-03-08T02:07:50;16.42;;;7.72;;
62050;SDS011;48008;51.204;6.766;2023-03-08T02:10:18;17.55;;;7.50;;
62050;SDS011;48008;51.204;6.766;2023-03-08T02:12:45;17.30;;;8.30;;
62050;SDS011;48008;51.204;6.766;2023-03-08T02:15:14;19.65;;;7.68;;
62050;SDS011;48008;51.204;6.766;2023-03-08T02:17:49;18.38;;;7.50;;
62050;SDS011;48008;51.204;6.766;2023-03-08T02:20:17;19.25;;;8.43;;
62050;SDS011;48008;51.204;6.766;2023-03-08T02:22:49;16.80;;;7.30;;
62050;SDS011;48008;51.204;6.766;2023-03-08T02:25:20;16.85;;;8.57;;
62050;SDS011;48008;51.204;6.766;2023-03-08T02:27:49;18.48;;;7.95;;
62050;SDS011;48008;51.204;6.766;2023-03-08T02:30:22;17.02;;;7.40;;
62050;SDS011;48008;51.204;6.766;2023-03-08T02:32:51;18.30;;;8.55;;
62050;SDS011;48008;51.204;6.766;2023-03-08T02:35:18;15.98;;;7.45;;
62050;SDS011;48008;51.204;6.766;2023-03-08T02:37:44;18.52;;;8.00;;
62050;SDS011;48008;51.204;6.766;2023-03-08T02:40:11;17.30;;;7.57;;
62050;SDS011;48008;51.204;6.766;2023-03-08T02:42:39;18.02;;;6.95;;
62050;SDS011;48008;51.204;6.766;2023-03-08T02:45:06;15.07;;;7.43;;
62050;SDS011;48008;51.204;6.766;2023-03-08T02:47:33;15.40;;;6.90;;
62050;SDS011;48008;51.204;6.766;2023-03-08T02:50:00;16.83;;;7.43;;
62050;SDS011;48008;51.204;6.766;2023-03-08T02:52:26;19.33;;;7.63;;
62050;SDS011;48008;51.204;6.766;2023-03-08T02:54:53;21.38;;;7.95;;
62050;SDS011;48008;51.204;6.766;2023-03-08T02:57:21;18.45;;;8.02;;
62050;SDS011;48008;51.204;6.766;2023-03-08T02:59:49;18.70;;;7.97;;
62050;SDS011;48008;51.204;6.766;2023-03-08T03:02:16;18.15;;;8.27;;
62050;SDS011;48008;51.204;6.766;2023-03-08T03:04:42;20.27;;;8.27;;
62050;SDS011;48008;51.204;6.766;2023-03-08T03:07:10;18.63;;;8.57;;
62050;SDS011;48008;51.204;6.766;2023-03-08T03:09:37;18.10;;;8.43;;
62050;SDS011;48008;51.204;6.766;2023-03-08T03:12:04;20.00;;;8.05;;
62050;SDS011;48008;51.204;6.766;2023-03-08T03:14:33;20.33;;;8.27;;
62050;SDS011;48008;51.204;6.766;2023-03-08T03:17:00;17.60;;;8.20;;
62050;SDS011;48008;51.204;6.766;2023-03-08T03:19:27;22.33;;;8.50;;
62050;SDS011;48008;51.204;6.766;2023-03-08T03:21:54;21.25;;;8.68;;
62050;SDS011;48008;51.204;6.766;2023-03-08T03:24:20;23.13;;;8.85;;
62050;SDS011;48008;51.204;6.766;2023-03-08T03:26:54;18.42;;;8.52;;
62050;SDS011;48008;51.204;6.766;2023-03-08T03:29:23;20.67;;;9.30;;
62050;SDS011;48008;51.204;6.766;2023-03-08T03:31:56;18.35;;;9.13;;
62050;SDS011;48008;51.204;6.766;2023-03-08T03:34:23;19.92;;;8.82;;
62050;SDS011;48008;51.204;6.766;2023-03-08T03:36:50;20.25;;;8.80;;
62050;SDS011;48008;51.204;6.766;2023-03-08T03:39:17;19.42;;;8.55;;
62050;SDS011;48008;51.204;6.766;2023-03-08T03:41:46;21.20;;;8.70;;
62050;SDS011;48008;51.204;6.766;2023-03-08T03:44:14;21.20;;;9.18;;
62050;SDS011;48008;51.204;6.766;2023-03-08T03:46:43;22.65;;;8.88;;
62050;SDS011;48008;51.204;6.766;2023-03-08T03:49:12;20.45;;;9.30;;
62050;SDS011;48008;51.204;6.766;2023-03-08T03:51:41;20.38;;;8.85;;
62050;SDS011;48008;51.204;6.766;2023-03-08T03:54:13;22.17;;;9.68;;
62050;SDS011;48008;51.204;6.766;2023-03-08T03:56:43;22.88;;;10.00;;
62050;SDS011;48008;51.204;6.766;2023-03-08T03:59:09;22.73;;;10.43;;
62050;SDS011;48008;51.204;6.766;2023-03-08T04:01:36;25.40;;;9.90;;
62050;SDS011;48008;51.204;6.766;2023-03-08T04:04:11;25.23;;;10.02;;
62050;SDS011;48008;51.204;6.766;2023-03-08T04:06:41;23.58;;;9.93;;
62050;SDS011;48008;51.204;6.766;2023-03-08T04:09:13;22.40;;;9.65;;
62050;SDS011;48008;51.204;6.766;2023-03-08T04:11:43;22.42;;;9.68;;
62050;SDS011;48008;51.204;6.766;2023-03-08T04:14:15;23.55;;;10.52;;
62050;SDS011;48008;51.204;6.766;2023-03-08T04:16:42;23.52;;;10.30;;
62050;SDS011;48008;51.204;6.766;2023-03-08T04:19:22;23.02;;;9.45;;
62050;SDS011;48008;51.204;6.766;2023-03-08T04:21:52;26.83;;;10.43;;
62050;SDS011;48008;51.204;6.766;2023-03-08T04:24:22;24.30;;;9.73;;
62050;SDS011;48008;51.204;6.766;2023-03-08T04:26:52;27.23;;;10.50;;
62050;SDS011;48008;51.204;6.766;2023-03-08T04:29:19;25.70;;;10.18;;
62050;SDS011;48008;51.204;6.766;2023-03-08T04:31:46;25.33;;;9.55;;
62050;SDS011;48008;51.204;6.766;2023-03-08T04:34:16;21.50;;;9.20;;
62050;SDS011;48008;51.204;6.766;2023-03-08T04:36:46;21.95;;;9.63;;
62050;SDS011;48008;51.204;6.766;2023-03-08T04:39:13;27.45;;;10.20;;
62050;SDS011;48008;51.204;6.766;2023-03-08T04:41:40;31.15;;;10.68;;
62050;SDS011;48008;51.204;6.766;2023-03-08T04:44:14;30.45;;;10.52;;
62050;SDS011;48008;51.204;6.766;2023-03-08T04:46:46;26.13;;;11.50;;
62050;SDS011;48008;51.204;6.766;2023-03-08T04:49:19;29.27;;;12.05;;
62050;SDS011;48008;51.204;6.766;2023-03-08T04:51:51;30.95;;;13.82;;
62050;SDS011;48008;51.204;6.766;2023-03-08T04:54:18;35.42;;;15.15;;
62050;SDS011;48008;51.204;6.766;2023-03-08T04:56:51;33.17;;;15.90;;
62050;SDS011;48008;51.204;6.766;2023-03-08T04:59:22;42.10;;;17.93;;
62050;SDS011;48008;51.204;6.766;2023-03-08T05:01:50;41.75;;;17.88;;
62050;SDS011;48008;51.204;6.766;2023-03-08T05:04:18;45.40;;;18.50;;
62050;SDS011;48008;51.204;6.766;2023-03-08T05:06:45;38.67;;;17.23;;
62050;SDS011;48008;51.204;6.766;2023-03-08T05:09:18;43.42;;;17.98;;
62050;SDS011;48008;51.204;6.766;2023-03-08T05:11:47;46.35;;;18.60;;
62050;SDS011;48008;51.204;6.766;2023-03-08T05:14:14;44.13;;;18.80;;
62050;SDS011;48008;51.204;6.766;2023-03-08T05:16:41;46.47;;;18.40;;
62050;SDS011;48008;51.204;6.766;2023-03-08T05:19:09;46.65;;;18.83;;
62050;SDS011;48008;51.204;6.766;2023-03-08T05:21:44;45.15;;;17.73;;
62050;SDS011;48008;51.204;6.766;2023-03-08T05:24:11;42.17;;;17.48;;
62050;SDS011;48008;51.204;6.766;2023-03-08T05:26:38;42.58;;;18.92;;
62050;SDS011;48008;51.204;6.766;2023-03-08T05:29:06;43.00;;;17.02;;
62050;SDS011;48008;51.204;6.766;2023-03-08T05:31:34;34.85;;;16.20;;
62050;SDS011;48008;51.204;6.766;2023-03-08T05:34:04;34.97;;;16.17;;
62050;SDS011;48008;51.204;6.766;2023-03-08T05:36:35;38.17;;;16.05;;
62050;SDS011;48008;51.204;6.766;2023-03-08T05:39:04;34.22;;;15.10;;
62050;SDS011;48008;51.204;6.766;2023-03-08T05:41:45;33.10;;;15.77;;
62050;SDS011;48008;51.204;6.766;2023-03-08T05:44:20;32.20;;;14.80;;
62050;SDS011;48008;51.204;6.766;2023-03-08T05:46:49;28.50;;;13.43;;
62050;SDS011;48008;51.204;6.766;2023-03-08T05:49:17;33.58;;;14.02;;
62050;SDS011;48008;51.204;6.766;2023-03-08T05:51:45;30.05;;;13.68;;
62050;SDS011;48008;51.204;6.766;2023-03-08T05:54:12;33.38;;;14.15;;
62050;SDS011;48008;51.204;6.766;2023-03-08T05:56:40;26.25;;;13.13;;
62050;SDS011;48008;51.204;6.766;2023-03-08T05:59:14;23.80;;;12.05;;
62050;SDS011;48008;51.204;6.766;2023-03-08T06:01:41;27.27;;;12.70;;
62050;SDS011;48008;51.204;6.766;2023-03-08T06:04:18;28.90;;;12.02;;
62050;SDS011;48008;51.204;6.766;2023-03-08T06:06:48;30.50;;;12.88;;
62050;SDS011;48008;51.204;6.766;2023-03-08T06:09:15;28.25;;;13.15;;
62050;SDS011;48008;51.204;6.766;2023-03-08T06:11:42;30.05;;;12.80;;
62050;SDS011;48008;51.204;6.766;2023-03-08T06:14:09;25.60;;;12.15;;
62050;SDS011;48008;51.204;6.766;2023-03-08T06:16:38;31.05;;;12.60;;
62050;SDS011;48008;51.204;6.766;2023-03-08T06:19:05;24.27;;;11.57;;
62050;SDS011;48008;51.204;6.766;2023-03-08T06:21:33;21.10;;;9.63;;
62050;SDS011;48008;51.204;6.766;2023-03-08T06:24:02;22.23;;;9.98;;
62050;SDS011;48008;51.204;6.766;2023-03-08T06:26:29;27.52;;;11.00;;
62050;SDS011;48008;51.204;6.766;2023-03-08T06:28:56;24.83;;;10.85;;
62050;SDS011;48008;51.204;6.766;2023-03-08T06:31:27;24.83;;;10.93;;
62050;SDS011;48008;51.204;6.766;2023-03-08T06:33:54;26.55;;;11.35;;
62050;SDS011;48008;51.204;6.766;2023-03-08T06:36:24;24.05;;;10.75;;
62050;SDS011;48008;51.204;6.766;2023-03-08T06:38:50;24.35;;;10.30;;
62050;SDS011;48008;51.204;6.766;2023-03-08T06:41:17;23.52;;;10.13;;
62050;SDS011;48008;51.204;6.766;2023-03-08T06:46:16;24.35;;;9.82;;
62050;SDS011;48008;51.204;6.766;2023-03-08T06:48:45;25.08;;;10.65;;
62050;SDS011;48008;51.204;6.766;2023-03-08T06:51:13;25.60;;;10.77;;
62050;SDS011;48008;51.204;6.766;2023-03-08T06:53:43;24.42;;;10.73;;
62050;SDS011;48008;51.204;6.766;2023-03-08T06:56:12;25.40;;;10.32;;
62050;SDS011;48008;51.204;6.766;2023-03-08T06:58:41;24.02;;;10.10;;
62050;SDS011;48008;51.204;6.766;2023-03-08T07:01:08;22.95;;;9.82;;
62050;SDS011;48008;51.204;6.766;2023-03-08T07:03:36;26.45;;;9.95;;
62050;SDS011;48008;51.204;6.766;2023-03-08T07:06:05;21.70;;;9.45;;
62050;SDS011;48008;51.204;6.766;2023-03-08T07:08:34;23.58;;;9.07;;
62050;SDS011;48008;51.204;6.766;2023-03-08T07:11:01;23.90;;;9.65;;
62050;SDS011;48008;51.204;6.766;2023-03-08T07:13:28;22.52;;;9.85;;
62050;SDS011;48008;51.204;6.766;2023-03-08T07:15:56;22.70;;;9.00;;
62050;SDS011;48008;51.204;6.766;2023-03-08T07:18:23;23.38;;;9.50;;
62050;SDS011;48008;51.204;6.766;2023-03-08T07:20:51;20.17;;;8.45;;
62050;SDS011;48008;51.204;6.766;2023-03-08T07:23:18;22.42;;;8.70;;
62050;SDS011;48008;51.204;6.766;2023-03-08T07:25:45;21.60;;;8.63;;
62050;SDS011;48008;51.204;6.766;2023-03-08T07:28:12;24.58;;;9.18;;
62050;SDS011;48008;51.204;6.766;2023-03-08T07:30:39;25.70;;;9.35;;
62050;SDS011;48008;51.204;6.766;2023-03-08T07:33:06;24.00;;;10.13;;
62050;SDS011;48008;51.204;6.766;2023-03-08T07:35:32;24.27;;;10.32;;
62050;SDS011;48008;51.204;6.766;2023-03-08T07:37:59;25.65;;;10.25;;
62050;SDS011;48008;51.204;6.766;2023-03-08T07:40:25;23.15;;;9.88;;
62050;SDS011;48008;51.204;6.766;2023-03-08T07:42:52;30.10;;;10.50;;
62050;SDS011;48008;51.204;6.766;2023-03-08T07:48:03;22.55;;;8.52;;
62050;SDS011;48008;51.204;6.766;2023-03-08T07:50:30;21.42;;;8.52;;
62050;SDS011;48008;51.204;6.766;2023-03-08T07:52:57;19.13;;;8.55;;
62050;SDS011;48008;51.204;6.766;2023-03-08T07:55:25;21.15;;;8.27;;
62050;SDS011;48008;51.204;6.766;2023-03-08T07:57:52;20.70;;;8.35;;
62050;SDS011;48008;51.204;6.766;2023-03-08T08:00:19;17.65;;;8.00;;
62050;SDS011;48008;51.204;6.766;2023-03-08T08:02:46;23.52;;;8.88;;
62050;SDS011;48008;51.204;6.766;2023-03-08T08:05:13;20.85;;;8.30;;
62050;SDS011;48008;51.204;6.766;2023-03-08T08:07:40;18.80;;;7.78;;
62050;SDS011;48008;51.204;6.766;2023-03-08T08:10:07;22.77;;;8.48;;
62050;SDS011;48008;51.204;6.766;2023-03-08T08:12:34;21.88;;;8.52;;
62050;SDS011;48008;51.204;6.766;2023-03-08T08:15:01;22.15;;;9.05;;
62050;SDS011;48008;51.204;6.766;2023-03-08T08:17:28;25.95;;;9.05;;
62050;SDS011;48008;51.204;6.766;2023-03-08T08:19:54;22.98;;;9.23;;
62050;SDS011;48008;51.204;6.766;2023-03-08T08:22:21;21.95;;;8.38;;
62050;SDS011;48008;51.204;6.766;2023-03-08T08:24:48;24.27;;;8.93;;
62050;SDS011;48008;51.204;6.766;2023-03-08T08:27:14;22.88;;;9.73;;
62050;SDS011;48008;51.204;6.766;2023-03-08T08:29:41;23.98;;;10.02;;
62050;SDS011;48008;51.204;6.766;2023-03-08T08:32:11;23.55;;;9.43;;
62050;SDS011;48008;51.204;6.766;2023-03-08T08:34:38;21.92;;;9.60;;
62050;SDS011;48008;51.204;6.766;2023-03-08T08:37:04;22.60;;;9.05;;
62050;SDS011;48008;51.204;6.766;2023-03-08T08:39:31;22.77;;;9.70;;
62050;SDS011;48008;51.204;6.766;2023-03-08T08:41:58;22.02;;;10.02;;
62050;SDS011;48008;51.204;6.766;2023-03-08T08:44:24;25.92;;;9.05;;
62050;SDS011;48008;51.204;6.766;2023-03-08T08:46:51;24.33;;;10.13;;
62050;SDS011;48008;51.204;6.766;2023-03-08T08:49:18;23.92;;;8.82;;
62050;SDS011;48008;51.204;6.766;2023-03-08T08:51:45;26.00;;;10.57;;
62050;SDS011;48008;51.204;6.766;2023-03-08T08:54:12;27.00;;;8.60;;
62050;SDS011;48008;51.204;6.766;2023-03-08T08:56:39;18.77;;;8.77;;
62050;SDS011;48008;51.204;6.766;2023-03-08T08:59:08;21.00;;;8.55;;
62050;SDS011;48008;51.204;6.766;2023-03-08T09:01:37;20.42;;;9.32;;
62050;SDS011;48008;51.204;6.766;2023-03-08T09:04:10;19.08;;;8.40;;
62050;SDS011;48008;51.204;6.766;2023-03-08T09:06:38;22.02;;;8.98;;
62050;SDS011;48008;51.204;6.766;2023-03-08T09:09:05;19.83;;;8.82;;
62050;SDS011;48008;51.204;6.766;2023-03-08T09:11:32;16.58;;;7.90;;
62050;SDS011;48008;51.204;6.766;2023-03-08T09:14:05;19.25;;;8.73;;
62050;SDS011;48008;51.204;6.766;2023-03-08T09:16:32;19.38;;;8.38;;
62050;SDS011;48008;51.204;6.766;2023-03-08T09:19:00;17.58;;;8.25;;
62050;SDS011;48008;51.204;6.766;2023-03-08T09:21:29;18.95;;;8.30;;
62050;SDS011;48008;51.204;6.766;2023-03-08T09:23:58;18.95;;;7.97;;
62050;SDS011;48008;51.204;6.766;2023-03-08T09:26:27;17.70;;;8.52;;
62050;SDS011;48008;51.204;6.766;2023-03-08T09:28:56;20.35;;;8.68;;
62050;SDS011;48008;51.204;6.766;2023-03-08T09:31:23;23.40;;;8.57;;
62050;SDS011;48008;51.204;6.766;2023-03-08T09:33:51;20.08;;;9.10;;
62050;SDS011;48008;51.204;6.766;2023-03-08T09:36:18;19.38;;;9.00;;
62050;SDS011;48008;51.204;6.766;2023-03-08T09:38:46;21.42;;;9.07;;
62050;SDS011;48008;51.204;6.766;2023-03-08T09:47:31;22.70;;;9.48;;
62050;SDS011;48008;51.204;6.766;2023-03-08T09:50:20;19.63;;;9.07;;
62050;SDS011;48008;51.204;6.766;2023-03-08T09:56:11;21.60;;;10.75;;
62050;SDS011;48008;51.204;6.766;2023-03-08T09:58:48;22.85;;;10.55;;
62050;SDS011;48008;51.204;6.766;2023-03-08T10:01:37;23.05;;;10.02;;
62050;SDS011;48008;51.204;6.766;2023-03-08T10:07:19;25.77;;;10.27;;
62050;SDS011;48008;51.204;6.766;2023-03-08T10:10:02;20.35;;;9.80;;
62050;SDS011;48008;51.204;6.766;2023-03-08T10:15:18;20.75;;;10.32;;
62050;SDS011;48008;51.204;6.766;2023-03-08T10:17:50;25.00;;;11.27;;
62050;SDS011;48008;51.204;6.766;2023-03-08T10:20:24;23.05;;;11.50;;
62050;SDS011;48008;51.204;6.766;2023-03-08T10:23:01;26.27;;;11.05;;
62050;SDS011;48008;51.204;6.766;2023-03-08T10:25:38;24.48;;;10.68;;
62050;SDS011;48008;51.204;6.766;2023-03-08T10:28:10;24.77;;;11.23;;
62050;SDS011;48008;51.204;6.766;2023-03-08T10:30:49;23.58;;;11.10;;
62050;SDS011;48008;51.204;6.766;2023-03-08T10:33:18;21.45;;;10.38;;
62050;SDS011;48008;51.204;6.766;2023-03-08T10:38:42;24.08;;;11.15;;
62050;SDS011;48008;51.204;6.766;2023-03-08T10:41:21;27.52;;;11.48;;
62050;SDS011;48008;51.204;6.766;2023-03-08T10:43:49;25.33;;;11.68;;
62050;SDS011;48008;51.204;6.766;2023-03-08T10:46:20;21.80;;;11.48;;
62050;SDS011;48008;51.204;6.766;2023-03-08T10:48:49;22.02;;;11.70;;
62050;SDS011;48008;51.204;6.766;2023-03-08T10:51:21;26.88;;;12.18;;
62050;SDS011;48008;51.204;6.766;2023-03-08T10:53:55;22.77;;;11.88;;
62050;SDS011;48008;51.204;6.766;2023-03-08T10:56:26;22.38;;;11.90;;
62050;SDS011;48008;51.204;6.766;2023-03-08T10:59:02;26.13;;;12.35;;
62050;SDS011;48008;51.204;6.766;2023-03-08T11:01:32;28.13;;;12.48;;
62050;SDS011;48008;51.204;6.766;2023-03-08T11:04:03;25.13;;;12.20;;
62050;SDS011;48008;51.204;6.766;2023-03-08T11:06:32;26.00;;;12.30;;
62050;SDS011;48008;51.204;6.766;2023-03-08T11:09:02;21.42;;;11.90;;
62050;SDS011;48008;51.204;6.766;2023-03-08T11:11:39;30.52;;;13.15;;
62050;SDS011;48008;51.204;6.766;2023-03-08T11:14:08;25.40;;;12.30;;
62050;SDS011;48008;51.204;6.766;2023-03-08T11:25:47;28.80;;;14.60;;
62050;SDS011;48008;51.204;6.766;2023-03-08T11:28:11;29.13;;;14.40;;
62050;SDS011;48008;51.204;6.766;2023-03-08T11:30:57;27.15;;;14.38;;
62050;SDS011;48008;51.204;6.766;2023-03-08T11:36:24;28.48;;;15.20;;
62050;SDS011;48008;51.204;6.766;2023-03-08T11:39:10;32.10;;;16.17;;
62050;SDS011;48008;51.204;6.766;2023-03-08T11:44:47;29.20;;;16.25;;
62050;SDS011;48008;51.204;6.766;2023-03-08T11:50:34;33.65;;;16.20;;
62050;SDS011;48008;51.204;6.766;2023-03-08T11:53:09;32.95;;;16.98;;
62050;SDS011;48008;51.204;6.766;2023-03-08T11:55:45;34.92;;;17.25;;
62050;SDS011;48008;51.204;6.766;2023-03-08T11:58:37;30.23;;;17.23;;
62050;SDS011;48008;51.204;6.766;2023-03-08T12:01:15;29.90;;;15.77;;
62050;SDS011;48008;51.204;6.766;2023-03-08T12:03:50;33.97;;;16.35;;
62050;SDS011;48008;51.204;6.766;2023-03-08T12:06:22;32.45;;;16.83;;
62050;SDS011;48008;51.204;6.766;2023-03-08T12:08:57;32.40;;;16.73;;
62050;SDS011;48008;51.204;6.766;2023-03-08T12:11:33;30.20;;;16.33;;
62050;SDS011;48008;51.204;6.766;2023-03-08T12:14:12;28.58;;;15.80;;
62050;SDS011;48008;51.204;6.766;2023-03-08T12:16:46;32.63;;;16.70;;
62050;SDS011;48008;51.204;6.766;2023-03-08T12:19:20;31.30;;;16.20;;
62050;SDS011;48008;51.204;6.766;2023-03-08T12:24:47;30.30;;;16.25;;
62050;SDS011;48008;51.204;6.766;2023-03-08T12:27:34;29.75;;;16.15;;
62050;SDS011;48008;51.204;6.766;2023-03-08T12:30:16;30.50;;;17.73;;
62050;SDS011;48008;51.204;6.766;2023-03-08T12:33:01;30.98;;;16.90;;
62050;SDS011;48008;51.204;6.766;2023-03-08T12:35:32;35.85;;;18.00;;
62050;SDS011;48008;51.204;6.766;2023-03-08T12:38:01;30.88;;;17.77;;
62050;SDS011;48008;51.204;6.766;2023-03-08T12:40:49;37.35;;;18.13;;
62050;SDS011;48008;51.204;6.766;2023-03-08T12:48:34;35.38;;;17.15;;
62050;SDS011;48008;51.204;6.766;2023-03-08T12:51:07;32.42;;;17.05;;
62050;SDS011;48008;51.204;6.766;2023-03-08T12:56:27;35.72;;;17.13;;
62050;SDS011;48008;51.204;6.766;2023-03-08T12:58:58;36.88;;;16.70;;
62050;SDS011;48008;51.204;6.766;2023-03-08T13:01:28;29.70;;;15.43;;
62050;SDS011;48008;51.204;6.766;2023-03-08T13:03:59;35.05;;;15.85;;
62050;SDS011;48008;51.204;6.766;2023-03-08T13:06:36;33.13;;;15.10;;
62050;SDS011;48008;51.204;6.766;2023-03-08T13:09:26;29.77;;;15.25;;
62050;SDS011;48008;51.204;6.766;2023-03-08T13:12:07;28.92;;;15.38;;
62050;SDS011;48008;51.204;6.766;2023-03-08T13:14:46;30.88;;;14.55;;
62050;SDS011;48008;51.204;6.766;2023-03-08T13:20:00;42.83;;;15.20;;
62050;SDS011;48008;51.204;6.766;2023-03-08T13:22:45;26.73;;;14.55;;
62050;SDS011;48008;51.204;6.766;2023-03-08T13:25:29;28.65;;;15.15;;
62050;SDS011;48008;51.204;6.766;2023-03-08T13:28:14;30.88;;;14.75;;
62050;SDS011;48008;51.204;6.766;2023-03-08T13:33:24;27.08;;;13.93;;
62050;SDS011;48008;51.204;6.766;2023-03-08T13:36:25;29.63;;;14.23;;
62050;SDS011;48008;51.204;6.766;2023-03-08T13:38:43;30.83;;;14.40;;
62050;SDS011;48008;51.204;6.766;2023-03-08T13:41:29;25.90;;;14.60;;
62050;SDS011;48008;51.204;6.766;2023-03-08T13:44:00;31.90;;;14.68;;
62050;SDS011;48008;51.204;6.766;2023-03-08T13:46:30;31.25;;;15.45;;
62050;SDS011;48008;51.204;6.766;2023-03-08T13:48:57;27.02;;;14.93;;
62050;SDS011;48008;51.204;6.766;2023-03-08T13:51:25;28.83;;;14.55;;
62050;SDS011;48008;51.204;6.766;2023-03-08T13:53:54;26.08;;;15.20;;
62050;SDS011;48008;51.204;6.766;2023-03-08T13:56:23;35.08;;;18.27;;
62050;SDS011;48008;51.204;6.766;2023-03-08T13:58:52;33.35;;;16.83;;
62050;SDS011;48008;51.204;6.766;2023-03-08T14:01:23;27.10;;;14.73;;
62050;SDS011;48008;51.204;6.766;2023-03-08T14:03:52;31.95;;;16.70;;
62050;SDS011;48008;51.204;6.766;2023-03-08T14:06:22;26.48;;;14.80;;
62050;SDS011;48008;51.204;6.766;2023-03-08T14:08:55;29.10;;;14.85;;
62050;SDS011;48008;51.204;6.766;2023-03-08T14:11:27;30.13;;;13.55;;
62050;SDS011;48008;51.204;6.766;2023-03-08T14:13:55;30.63;;;15.15;;
62050;SDS011;48008;51.204;6.766;2023-03-08T14:16:27;33.97;;;15.85;;
62050;SDS011;48008;51.204;6.766;2023-03-08T14:18:58;22.60;;;13.77;;
62050;SDS011;48008;51.204;6.766;2023-03-08T14:21:27;27.58;;;14.10;;
62050;SDS011;48008;51.204;6.766;2023-03-08T14:23:56;23.15;;;13.65;;
62050;SDS011;48008;51.204;6.766;2023-03-08T14:26:34;24.52;;;12.60;;
62050;SDS011;48008;51.204;6.766;2023-03-08T14:31:56;25.10;;;12.13;;
62050;SDS011;48008;51.204;6.766;2023-03-08T14:34:28;35.10;;;16.88;;
62050;SDS011;48008;51.204;6.766;2023-03-08T14:37:00;22.48;;;12.93;;
62050;SDS011;48008;51.204;6.766;2023-03-08T14:39:31;26.92;;;14.07;;
62050;SDS011;48008;51.204;6.766;2023-03-08T14:42:07;25.27;;;14.00;;
62050;SDS011;48008;51.204;6.766;2023-03-08T14:44:36;20.65;;;12.50;;
62050;SDS011;48008;51.204;6.766;2023-03-08T14:47:06;29.40;;;13.45;;
62050;SDS011;48008;51.204;6.766;2023-03-08T14:49:36;25.65;;;12.65;;
62050;SDS011;48008;51.204;6.766;2023-03-08T14:52:02;26.83;;;13.35;;
62050;SDS011;48008;51.204;6.766;2023-03-08T14:54:33;28.00;;;13.57;;
62050;SDS011;48008;51.204;6.766;2023-03-08T14:57:11;28.67;;;13.73;;
62050;SDS011;48008;51.204;6.766;2023-03-08T14:59:44;24.77;;;13.60;;
62050;SDS011;48008;51.204;6.766;2023-03-08T15:02:13;25.98;;;14.05;;
62050;SDS011;48008;51.204;6.766;2023-03-08T15:04:41;30.50;;;14.65;;
62050;SDS011;48008;51.204;6.766;2023-03-08T15:07:13;26.05;;;14.25;;
62050;SDS011;48008;51.204;6.766;2023-03-08T15:09:44;26.60;;;14.35;;
62050;SDS011;48008;51.204;6.766;2023-03-08T15:12:12;28.63;;;14.95;;
62050;SDS011;48008;51.204;6.766;2023-03-08T15:14:39;26.10;;;14.23;;
62050;SDS011;48008;51.204;6.766;2023-03-08T15:17:06;29.95;;;14.63;;
62050;SDS011;48008;51.204;6.766;2023-03-08T15:19:32;33.72;;;13.52;;
62050;SDS011;48008;51.204;6.766;2023-03-08T15:21:59;31.17;;;15.05;;
62050;SDS011;48008;51.204;6.766;2023-03-08T15:24:26;29.00;;;13.70;;
62050;SDS011;48008;51.204;6.766;2023-03-08T15:26:53;24.23;;;13.63;;
62050;SDS011;48008;51.204;6.766;2023-03-08T15:29:31;24.38;;;13.73;;
62050;SDS011;48008;51.204;6.766;2023-03-08T15:31:59;27.23;;;13.88;;
62050;SDS011;48008;51.204;6.766;2023-03-08T15:34:26;26.38;;;14.07;;
62050;SDS011;48008;51.204;6.766;2023-03-08T15:36:54;27.05;;;13.98;;
62050;SDS011;48008;51.204;6.766;2023-03-08T15:39:20;26.05;;;14.73;;
62050;SDS011;48008;51.204;6.766;2023-03-08T15:41:47;28.23;;;14.95;;
62050;SDS011;48008;51.204;6.766;2023-03-08T15:44:14;28.40;;;15.13;;
62050;SDS011;48008;51.204;6.766;2023-03-08T15:46:40;32.25;;;16.08;;
62050;SDS011;48008;51.204;6.766;2023-03-08T15:49:08;30.05;;;14.73;;